Time;durP1;ratioP1;P1;durP2;ratioP2;P2;SDS_P1;SDS_P2;PMS_P1;PMS_P2;Temp;Humidity;BMP_temperature;BMP_pressure;BME280_temperature;BME280_humidity;BME280_pressure;Samples;Min_cycle;Max_cycle;Signal;HPM_P1;HPM_P2
2021/05/29 00:01:10;;;;;;;3.17;2.63;;;;;;;14.02;60.25;94816.06;2958175;40;20060;-74
2021/05/29 00:03:13;;;;;;;4.95;2.45;;;;;;;14.01;59.82;94811.00;2958651;40;20417;-70
2021/05/29 00:05:14;;;;;;;2.92;2.15;;;;;;;13.90;60.20;94807.78;2957604;40;20093;-71
2021/05/29 00:07:17;;;;;;;2.90;2.30;;;;;;;14.02;59.91;94804.72;2958659;40;20052;-72
2021/05/29 00:09:18;;;;;;;3.67;2.03;;;;;;;13.98;60.07;94816.59;2958504;40;20460;-71
2021/05/29 00:11:20;;;;;;;4.22;2.35;;;;;;;14.00;59.33;94810.16;2954445;40;20194;-71
2021/05/29 00:13:23;;;;;;;3.28;2.50;;;;;;;14.03;59.93;94801.91;2958879;40;20057;-71
2021/05/29 00:15:25;;;;;;;3.05;2.42;;;;;;;13.98;59.57;94800.78;2949082;40;20195;-70
2021/05/29 00:17:27;;;;;;;3.55;2.58;;;;;;;13.98;59.79;94796.38;2946292;40;20084;-70
2021/05/29 00:19:28;;;;;;;3.40;2.30;;;;;;;14.03;59.83;94795.81;2957092;40;20049;-69
2021/05/29 00:21:30;;;;;;;3.30;2.22;;;;;;;13.92;59.59;94797.88;2957784;40;20149;-71
2021/05/29 00:23:32;;;;;;;3.08;2.50;;;;;;;13.84;59.77;94805.84;2957905;40;20049;-70
2021/05/29 00:25:35;;;;;;;4.85;2.75;;;;;;;13.72;60.30;94797.53;2957521;40;20088;-70
2021/05/29 00:27:36;;;;;;;3.17;2.35;;;;;;;13.84;60.15;94795.31;2954654;40;20235;-70
2021/05/29 00:29:38;;;;;;;4.15;2.60;;;;;;;13.86;60.15;94785.41;2958273;40;20180;-71
2021/05/29 00:31:41;;;;;;;3.00;2.55;;;;;;;13.87;60.09;94799.41;2957366;40;20055;-70
2021/05/29 00:33:43;;;;;;;3.85;3.38;;;;;;;13.84;60.09;94792.66;2958959;40;20440;-71
2021/05/29 00:35:45;;;;;;;2.85;2.25;;;;;;;13.94;59.56;94792.44;2958709;40;20145;-72
2021/05/29 00:37:46;;;;;;;3.42;2.25;;;;;;;13.98;59.89;94788.47;2958537;40;20090;-73
2021/05/29 00:39:48;;;;;;;4.30;2.53;;;;;;;13.91;59.88;94798.84;2958377;40;20447;-72
2021/05/29 00:41:50;;;;;;;3.95;2.38;;;;;;;13.90;59.75;94789.34;2959873;40;20065;-72
2021/05/29 00:43:52;;;;;;;3.45;2.67;;;;;;;13.88;59.70;94786.06;2955691;40;20246;-71
2021/05/29 00:45:54;;;;;;;3.30;2.22;;;;;;;13.89;59.81;94786.88;2955060;40;20061;-71
2021/05/29 00:47:57;;;;;;;3.00;2.15;;;;;;;13.83;59.94;94777.03;2958501;40;20165;-71
2021/05/29 00:50:01;;;;;;;4.88;2.53;;;;;;;13.79;59.88;94778.38;2955269;40;20101;-71
2021/05/29 00:52:03;;;;;;;3.42;2.00;;;;;;;13.83;59.85;94779.69;2956956;40;20082;-72
2021/05/29 00:54:06;;;;;;;4.38;2.25;;;;;;;13.72;60.13;94780.91;2957937;40;20163;-72
2021/05/29 00:56:08;;;;;;;3.15;2.30;;;;;;;13.80;60.18;94774.78;2958383;40;20079;-71
2021/05/29 00:58:09;;;;;;;5.65;2.75;;;;;;;13.80;60.34;94787.94;2959716;40;20064;-70
2021/05/29 01:00:12;;;;;;;3.30;2.17;;;;;;;13.78;60.17;94779.41;2955061;40;20436;-71
2021/05/29 01:02:16;;;;;;;3.30;2.50;;;;;;;13.78;60.10;94785.47;2956212;40;20069;-72
2021/05/29 01:04:18;;;;;;;4.05;2.13;;;;;;;13.83;59.99;94787.56;2953850;40;20535;-71
2021/05/29 01:06:20;;;;;;;3.35;2.20;;;;;;;13.80;59.92;94780.84;2952333;40;20056;-70
2021/05/29 01:08:25;;;;;;;4.20;2.35;;;;;;;13.73;60.61;94785.19;2958666;40;20392;-71
2021/05/29 01:10:26;;;;;;;3.20;2.22;;;;;;;13.63;60.58;94789.88;2956884;40;20131;-70
2021/05/29 01:12:28;;;;;;;2.75;2.40;;;;;;;13.68;60.33;94782.25;2959146;40;20074;-70
2021/05/29 01:14:31;;;;;;;8.38;2.40;;;;;;;13.67;60.39;94783.25;2959448;40;20129;-71
2021/05/29 01:18:40;;;;;;;4.18;2.30;;;;;;;13.71;60.21;94777.47;2956961;40;20057;-70
2021/05/29 01:20:44;;;;;;;4.30;2.20;;;;;;;13.69;60.59;94778.66;2957152;40;20057;-71
2021/05/29 01:22:47;;;;;;;;;;;;;;;13.68;60.33;94777.00;2954705;40;20068;-70
2021/05/29 01:24:49;;;;;;;2.97;2.30;;;;;;;13.63;60.42;94776.72;2959462;40;19989;-70
2021/05/29 01:26:52;;;;;;;4.63;2.55;;;;;;;13.60;60.73;94774.44;2959061;40;20156;-70
2021/05/29 01:28:55;;;;;;;3.10;2.22;;;;;;;13.60;60.42;94780.53;2959512;40;20233;-71
2021/05/29 01:31:02;;;;;;;4.93;2.10;;;;;;;13.64;60.55;94773.09;2958891;40;20162;-70
2021/05/29 01:33:05;;;;;;;6.57;2.42;;;;;;;13.59;60.21;94778.88;2955880;40;20310;-70
2021/05/29 01:35:10;;;;;;;2.33;2.03;;;;;;;13.56;60.84;94770.53;2956005;40;20067;-71
2021/05/29 01:37:12;;;;;;;5.78;2.83;;;;;;;13.51;60.93;94768.41;2959028;40;20138;-70
2021/05/29 01:39:13;;;;;;;3.47;2.30;;;;;;;13.47;60.57;94759.22;2951249;40;20093;-70
2021/05/29 01:41:17;;;;;;;4.43;2.45;;;;;;;13.51;60.75;94769.22;2957672;40;20689;-70
2021/05/29 01:43:19;;;;;;;4.35;2.83;;;;;;;13.52;60.67;94772.66;2956179;40;20093;-70
2021/05/29 01:45:22;;;;;;;4.03;2.40;;;;;;;13.52;60.56;94765.59;2958445;40;20129;-71
2021/05/29 01:47:24;;;;;;;2.75;2.20;;;;;;;13.55;60.71;94771.50;2949460;40;20457;-70
2021/05/29 01:49:26;;;;;;;3.80;2.70;;;;;;;13.55;60.44;94766.22;2955649;40;20073;-70
2021/05/29 01:51:28;;;;;;;3.25;2.30;;;;;;;13.51;60.59;94769.22;2959512;40;20466;-70
2021/05/29 01:53:30;;;;;;;3.42;2.28;;;;;;;13.49;60.83;94767.78;2959289;40;20061;-71
2021/05/29 01:55:33;;;;;;;3.08;2.70;;;;;;;13.50;60.85;94772.84;2959646;40;20051;-70
2021/05/29 01:57:34;;;;;;;4.25;2.42;;;;;;;13.56;60.41;94767.88;2959253;40;20064;-71
2021/05/29 01:59:36;;;;;;;2.42;1.95;;;;;;;13.48;60.59;94772.19;2959548;40;20115;-70
2021/05/29 02:01:38;;;;;;;3.75;2.20;;;;;;;13.47;60.51;94767.94;2957860;40;20072;-71
2021/05/29 02:03:41;;;;;;;3.03;2.13;;;;;;;13.53;60.46;94774.31;2957225;40;20053;-84
2021/05/29 02:05:43;;;;;;;2.83;2.13;;;;;;;13.56;60.67;94778.41;2959993;40;20052;-81
2021/05/29 02:07:45;;;;;;;3.30;2.50;;;;;;;13.54;60.29;94775.94;2958750;40;20130;-81
2021/05/29 02:09:47;;;;;;;2.90;2.45;;;;;;;13.60;60.41;94774.44;2962114;40;20052;-82
2021/05/29 02:11:49;;;;;;;4.75;2.30;;;;;;;13.59;60.00;94773.59;2959361;40;20426;-82
2021/05/29 02:13:51;;;;;;;5.43;2.55;;;;;;;13.59;60.53;94778.88;2959577;40;20053;-80
2021/05/29 02:15:54;;;;;;;3.60;2.63;;;;;;;13.48;60.39;94772.19;2957493;40;20100;-82
2021/05/29 02:17:59;;;;;;;2.88;2.28;;;;;;;13.48;60.48;94774.00;2956083;40;20053;-70
2021/05/29 02:20:01;;;;;;;3.72;2.63;;;;;;;13.55;60.49;94768.88;2957271;40;20060;-71
2021/05/29 02:22:03;;;;;;;3.00;2.10;;;;;;;13.49;60.60;94768.59;2959234;40;20053;-71
2021/05/29 02:24:05;;;;;;;5.97;2.40;;;;;;;13.50;60.57;94780.72;2959058;40;20956;-72
2021/05/29 02:26:15;;;;;;;2.53;2.03;;;;;;;13.39;60.63;94786.41;2949530;40;20084;-71
2021/05/29 02:28:17;;;;;;;4.18;2.67;;;;;;;13.40;60.48;94782.78;2955743;40;20429;-71
2021/05/29 02:30:20;;;;;;;4.15;2.58;;;;;;;13.41;60.68;94779.16;2957478;40;20116;-70
2021/05/29 02:32:22;;;;;;;3.58;2.58;;;;;;;13.37;60.41;94769.97;2957113;40;20133;-71
2021/05/29 02:34:23;;;;;;;3.35;2.25;;;;;;;13.38;60.40;94774.25;2957300;40;20056;-71
2021/05/29 02:36:25;;;;;;;2.80;2.28;;;;;;;13.40;60.72;94780.16;2957990;40;20204;-72
2021/05/29 02:38:27;;;;;;;3.10;1.95;;;;;;;13.35;60.92;94771.97;2959203;40;20059;-70
2021/05/29 02:40:29;;;;;;;3.33;2.25;;;;;;;13.32;60.88;94785.47;2959123;40;20053;-70
2021/05/29 02:42:31;;;;;;;2.15;1.70;;;;;;;13.27;60.87;94780.69;2954561;40;20563;-70
2021/05/29 02:44:33;;;;;;;3.10;2.10;;;;;;;13.30;60.49;94783.00;2958173;40;20065;-73
2021/05/29 02:46:35;;;;;;;4.38;2.20;;;;;;;13.25;61.20;94780.06;2954128;40;20088;-70
2021/05/29 02:48:37;;;;;;;2.70;2.10;;;;;;;13.17;61.22;94784.53;2957065;40;20281;-70
2021/05/29 02:50:40;;;;;;;3.22;2.20;;;;;;;13.19;61.05;94772.03;2959186;40;20064;-71
2021/05/29 02:52:43;;;;;;;3.35;1.98;;;;;;;13.10;61.17;94777.34;2957627;40;20406;-71
2021/05/29 02:54:45;;;;;;;3.63;1.95;;;;;;;13.18;60.84;94783.53;2959380;40;20056;-70
2021/05/29 02:56:47;;;;;;;4.10;2.35;;;;;;;13.21;61.05;94778.75;2958708;40;20384;-70
2021/05/29 02:58:49;;;;;;;2.90;2.00;;;;;;;13.19;60.60;94779.94;2956864;40;20124;-71
2021/05/29 03:00:51;;;;;;;3.28;2.22;;;;;;;13.24;60.95;94782.84;2957135;40;20055;-71
2021/05/29 03:02:54;;;;;;;5.47;1.90;;;;;;;13.21;60.78;94785.84;2957243;40;20082;-70
2021/05/29 03:04:56;;;;;;;2.75;2.10;;;;;;;13.22;60.68;94776.94;2955982;40;20061;-70
2021/05/29 03:06:58;;;;;;;2.20;1.85;;;;;;;13.15;60.82;94774.19;2952784;40;20092;-69
2021/05/29 03:09:00;;;;;;;2.53;1.90;;;;;;;13.21;60.85;94781.41;2955917;40;20502;-71
2021/05/29 03:11:02;;;;;;;2.97;1.90;;;;;;;13.26;60.18;94779.06;2953736;40;20071;-71
2021/05/29 03:13:06;;;;;;;3.72;2.00;;;;;;;13.28;60.28;94786.78;2958559;40;20076;-70
2021/05/29 03:15:14;;;;;;;3.38;2.08;;;;;;;13.21;60.17;94783.22;2958842;40;20061;-71
2021/05/29 03:17:17;;;;;;;4.03;2.15;;;;;;;13.26;60.48;94786.13;2956167;40;20596;-72
2021/05/29 03:19:19;;;;;;;2.53;1.80;;;;;;;13.31;60.13;94786.44;2956855;40;20067;-70
2021/05/29 03:21:20;;;;;;;4.88;2.22;;;;;;;13.30;60.28;94784.81;2958274;40;20097;-70
2021/05/29 03:23:24;;;;;;;3.50;2.30;;;;;;;13.30;60.06;94787.47;2958958;40;20167;-70
2021/05/29 03:25:26;;;;;;;3.40;2.17;;;;;;;13.38;59.95;94783.94;2954888;40;20053;-70
2021/05/29 03:27:28;;;;;;;2.90;2.05;;;;;;;13.40;59.88;94787.22;2957766;40;20080;-70
2021/05/29 03:29:29;;;;;;;2.47;2.00;;;;;;;13.47;59.69;94793.44;2953361;40;20086;-71
2021/05/29 03:31:32;;;;;;;2.65;1.95;;;;;;;13.48;59.32;94785.34;2953926;40;20056;-70
2021/05/29 03:33:34;;;;;;;4.60;2.50;;;;;;;13.56;59.48;94786.31;2958065;40;20055;-71
2021/05/29 03:35:36;;;;;;;2.67;2.30;;;;;;;13.61;59.17;94786.59;2958265;40;20100;-71
2021/05/29 03:37:38;;;;;;;4.38;2.25;;;;;;;13.63;59.09;94790.69;2957172;40;20145;-70
2021/05/29 03:39:39;;;;;;;3.50;2.20;;;;;;;13.70;58.64;94788.16;2956506;40;20402;-70
2021/05/29 03:41:41;;;;;;;4.43;2.05;;;;;;;13.75;58.79;94785.03;2958753;40;20067;-69
2021/05/29 03:43:43;;;;;;;5.75;2.00;;;;;;;13.84;58.13;94786.59;2958918;40;20445;-70
2021/05/29 03:45:44;;;;;;;2.95;2.10;;;;;;;13.91;58.38;94790.16;2957306;40;20064;-69
2021/05/29 03:47:47;;;;;;;3.10;1.98;;;;;;;13.90;58.25;94784.06;2952820;40;20409;-71
2021/05/29 03:49:48;;;;;;;2.50;2.10;;;;;;;13.90;58.06;94780.63;2959075;40;20052;-70
2021/05/29 03:51:50;;;;;;;3.72;1.90;;;;;;;13.91;57.93;94788.31;2959058;40;20150;-71
2021/05/29 03:53:52;;;;;;;3.55;2.10;;;;;;;13.92;57.78;94779.44;2958622;40;20413;-70
2021/05/29 03:55:55;;;;;;;4.15;1.88;;;;;;;13.89;57.69;94778.97;2957883;40;20065;-70
2021/05/29 03:57:56;;;;;;;2.78;1.83;;;;;;;13.91;57.68;94782.25;2958917;40;20052;-71
2021/05/29 03:59:58;;;;;;;2.85;1.80;;;;;;;14.06;57.48;94787.56;2957950;40;20049;-70
2021/05/29 04:02:00;;;;;;;3.88;2.03;;;;;;;14.09;57.13;94777.50;2958014;40;20145;-70
2021/05/29 04:04:01;;;;;;;3.35;1.63;;;;;;;14.16;57.27;94782.84;2949504;40;20057;-72
2021/05/29 04:06:03;;;;;;;2.53;1.42;;;;;;;14.17;56.55;94781.84;2957608;40;20056;-70
2021/05/29 04:08:06;;;;;;;4.85;1.75;;;;;;;14.24;56.61;94782.78;2958230;40;20395;-72
2021/05/29 04:10:13;;;;;;;2.40;1.83;;;;;;;14.37;56.66;94789.22;2957645;40;20122;-70
2021/05/29 04:12:15;;;;;;;2.85;1.75;;;;;;;14.21;56.52;94788.41;2957513;40;20054;-69
2021/05/29 04:14:17;;;;;;;3.10;1.95;;;;;;;14.26;56.66;94793.97;2958465;40;20064;-70
2021/05/29 04:16:19;;;;;;;3.20;1.92;;;;;;;14.29;56.41;94793.59;2953118;40;20154;-70
2021/05/29 04:18:21;;;;;;;2.60;1.63;;;;;;;14.40;56.82;94794.97;2957425;40;20065;-81
2021/05/29 04:20:25;;;;;;;3.47;1.85;;;;;;;14.44;56.30;94792.81;2954891;40;20061;-82
2021/05/29 04:22:27;;;;;;;3.25;2.03;;;;;;;14.40;56.58;94794.97;2950083;40;20462;-82
2021/05/29 04:24:28;;;;;;;2.45;1.92;;;;;;;14.34;56.31;94796.50;2957945;40;20052;-81
2021/05/29 04:26:30;;;;;;;2.42;1.75;;;;;;;14.43;56.18;94791.16;2959373;40;20092;-83
2021/05/29 04:28:35;;;;;;;2.38;1.85;;;;;;;14.43;56.67;94789.38;2958133;40;20065;-81
2021/05/29 04:30:37;;;;;;;3.05;2.03;;;;;;;14.45;56.82;94791.78;2955895;40;20061;-82
2021/05/29 04:32:39;;;;;;;4.43;1.95;;;;;;;14.56;56.33;94791.38;2948239;40;20454;-83
2021/05/29 04:34:42;;;;;;;3.15;1.90;;;;;;;14.52;56.62;94800.63;2957987;40;20069;-80
2021/05/29 04:36:43;;;;;;;3.42;1.98;;;;;;;14.48;56.38;94800.16;2958039;40;20057;-81
2021/05/29 04:38:45;;;;;;;2.50;1.70;;;;;;;14.43;56.47;94789.38;2957891;40;20711;-83
2021/05/29 04:40:47;;;;;;;2.47;1.80;;;;;;;14.51;56.43;94793.72;2958976;40;20061;-81
2021/05/29 04:42:50;;;;;;;2.42;1.88;;;;;;;14.64;56.01;94793.94;2948944;40;20126;-82
2021/05/29 04:44:55;;;;;;;2.97;2.00;;;;;;;14.57;56.18;94803.56;2951151;40;20045;-82
2021/05/29 04:47:00;;;;;;;3.00;2.03;;;;;;;14.74;55.97;94791.03;2959084;40;20104;-81
2021/05/29 04:49:02;;;;;;;2.10;1.70;;;;;;;14.73;55.48;94786.75;2961286;40;20044;-82
2021/05/29 04:51:16;;;;;;;4.63;2.10;;;;;;;14.80;55.42;94795.59;2963115;40;20115;-81
2021/05/29 04:53:18;;;;;;;2.42;1.77;;;;;;;14.83;55.31;94792.56;2962931;40;20073;-81
2021/05/29 04:55:21;;;;;;;2.40;2.00;;;;;;;14.97;55.33;94790.09;2965577;40;20114;-83
2021/05/29 04:57:23;;;;;;;2.70;1.88;;;;;;;14.91;55.36;94789.84;2964306;40;20397;-81
2021/05/29 04:59:25;;;;;;;5.00;1.88;;;;;;;14.92;55.36;94788.00;2964420;40;20053;-83
2021/05/29 05:01:30;;;;;;;2.47;1.80;;;;;;;14.98;55.06;94789.91;2960887;40;20095;-81
2021/05/29 05:03:32;;;;;;;3.15;1.92;;;;;;;15.02;54.87;94795.66;2961795;40;20064;-81
2021/05/29 05:05:34;;;;;;;2.22;1.80;;;;;;;14.89;54.86;94786.56;2959379;40;20056;-83
2021/05/29 05:07:36;;;;;;;3.53;1.95;;;;;;;14.98;55.03;94789.09;2957285;40;20080;-82
2021/05/29 05:09:38;;;;;;;1.92;1.55;;;;;;;14.91;54.89;94800.38;2960570;40;20057;-84
2021/05/29 05:11:41;;;;;;;3.53;1.92;;;;;;;14.88;54.94;94786.72;2960038;40;20102;-81
2021/05/29 05:13:46;;;;;;;2.78;1.70;;;;;;;14.91;54.74;94789.84;2960253;40;20327;-81
2021/05/29 05:15:49;;;;;;;2.80;1.80;;;;;;;14.83;55.36;94792.56;2950511;40;20142;-83
2021/05/29 05:17:51;;;;;;;2.85;1.85;;;;;;;14.91;55.29;94795.13;2957861;40;20057;-82
2021/05/29 05:19:53;;;;;;;4.38;2.67;;;;;;;14.79;55.42;94791.28;2956540;40;20097;-81
2021/05/29 05:21:55;;;;;;;2.30;1.60;;;;;;;14.91;55.25;94789.03;2952527;40;20064;-82
2021/05/29 05:23:56;;;;;;;2.78;2.00;;;;;;;15.02;54.43;94793.00;2958313;40;20337;-82
2021/05/29 05:25:58;;;;;;;2.65;1.70;;;;;;;14.93;54.78;94793.09;2959500;40;20513;-81
2021/05/29 05:28:00;;;;;;;2.13;1.70;;;;;;;15.06;54.78;94791.66;2960545;40;20142;-84
2021/05/29 05:30:07;;;;;;;3.75;1.70;;;;;;;14.98;54.83;94791.75;2960788;40;20162;-82
2021/05/29 05:32:08;;;;;;;5.07;1.98;;;;;;;15.14;54.92;94794.16;2960323;40;20084;-80
2021/05/29 05:34:11;;;;;;;3.15;1.70;;;;;;;15.14;54.74;94792.34;2960755;40;20134;-83
2021/05/29 05:36:13;;;;;;;2.42;1.73;;;;;;;15.17;54.59;94791.16;2960269;40;20056;-85
2021/05/29 05:38:15;;;;;;;3.45;1.95;;;;;;;15.18;54.24;94795.44;2960590;40;20056;-81
2021/05/29 05:40:17;;;;;;;2.60;1.90;;;;;;;15.15;54.32;94793.97;2957943;40;20065;-83
2021/05/29 05:42:19;;;;;;;2.80;2.03;;;;;;;15.07;54.14;94794.09;2960934;40;20070;-83
2021/05/29 05:44:21;;;;;;;2.42;1.90;;;;;;;14.75;55.73;94784.75;2954246;40;20352;-82
2021/05/29 05:46:23;;;;;;;2.95;1.77;;;;;;;14.97;55.15;94788.28;2959939;40;20378;-72
2021/05/29 05:48:25;;;;;;;4.50;1.90;;;;;;;15.06;55.13;94787.19;2958230;40;20217;-71
2021/05/29 05:50:28;;;;;;;2.35;1.60;;;;;;;15.25;54.73;94787.59;2958735;40;20061;-72
2021/05/29 05:52:29;;;;;;;3.13;2.00;;;;;;;15.33;54.46;94793.56;2959266;40;20076;-73
2021/05/29 05:54:31;;;;;;;4.03;2.28;;;;;;;15.48;54.54;94790.88;2958266;40;20053;-72
2021/05/29 05:56:33;;;;;;;5.70;2.10;;;;;;;15.26;54.40;94789.25;2958934;40;20064;-74
2021/05/29 05:58:36;;;;;;;2.88;2.10;;;;;;;15.06;55.06;94786.38;2959423;40;20070;-73
2021/05/29 06:00:38;;;;;;;2.33;2.13;;;;;;;15.09;54.49;94786.81;2958421;40;20061;-73
2021/05/29 06:02:42;;;;;;;5.13;2.13;;;;;;;15.10;54.62;94792.88;2957440;40;20157;-74
2021/05/29 06:04:44;;;;;;;3.17;1.77;;;;;;;14.63;55.21;94794.94;2958903;40;20469;-72
2021/05/29 06:06:47;;;;;;;2.30;1.63;;;;;;;14.59;56.08;94790.22;2959594;40;20372;-70
2021/05/29 06:08:48;;;;;;;4.80;2.20;;;;;;;14.92;55.47;94782.72;2958193;40;20402;-70
2021/05/29 06:10:51;;;;;;;3.28;1.92;;;;;;;14.93;55.62;94787.03;2959168;40;20137;-71
2021/05/29 06:12:54;;;;;;;3.78;2.20;;;;;;;14.92;55.48;94788.00;2959427;40;20053;-71
2021/05/29 06:19:38;;;;;;;3.58;2.00;;;;;;;15.61;54.34;94789.41;2956966;40;20116;-74
2021/05/29 06:21:48;;;;;;;3.10;1.77;;;;;;;15.69;53.70;94790.09;2959427;40;20052;-72
2021/05/29 06:23:50;;;;;;;3.55;1.90;;;;;;;15.75;53.24;94788.56;2953431;40;20106;-72
2021/05/29 06:25:51;;;;;;;2.90;1.80;;;;;;;15.87;52.82;94781.75;2959341;40;20049;-72
2021/05/29 06:27:53;;;;;;;3.72;2.60;;;;;;;15.87;52.68;94792.31;2957778;40;20360;-72
2021/05/29 06:29:55;;;;;;;3.65;1.83;;;;;;;15.86;52.46;94790.69;2956510;40;20413;-70
2021/05/29 06:31:56;;;;;;;3.72;1.75;;;;;;;15.82;51.98;94789.44;2958320;40;20052;-70
2021/05/29 06:33:58;;;;;;;4.13;1.73;;;;;;;15.87;52.16;94788.88;2959121;40;20137;-71
2021/05/29 06:36:00;;;;;;;2.88;1.70;;;;;;;16.07;51.16;94794.34;2957559;40;20053;-69
2021/05/29 06:38:02;;;;;;;2.15;1.75;;;;;;;16.10;51.39;94786.03;2959047;40;20112;-68
2021/05/29 06:40:05;;;;;;;4.10;1.90;;;;;;;16.11;51.28;94792.94;2958958;40;20081;-70
2021/05/29 06:42:07;;;;;;;2.38;1.40;;;;;;;16.02;51.72;94786.97;2955147;40;20071;-69
2021/05/29 06:44:10;;;;;;;2.47;1.77;;;;;;;16.13;51.84;94780.34;2958341;40;20056;-72
2021/05/29 06:46:12;;;;;;;4.30;2.33;;;;;;;16.32;51.37;94768.28;2958451;40;20141;-70
2021/05/29 06:48:15;;;;;;;5.32;1.90;;;;;;;16.40;51.32;94768.16;2958370;40;20068;-70
2021/05/29 06:50:17;;;;;;;1.83;1.42;;;;;;;16.53;49.77;94775.34;2957991;40;20352;-71
2021/05/29 06:52:23;;;;;;;2.92;1.70;;;;;;;16.55;49.78;94776.78;2955685;40;20041;-71
2021/05/29 06:54:37;;;;;;;2.95;1.52;;;;;;;16.61;49.66;94775.22;2957745;40;20056;-71
2021/05/29 06:58:59;;;;;;;2.30;1.60;;;;;;;16.51;50.37;94782.66;2957387;40;20464;-71
2021/05/29 07:01:01;;;;;;;3.60;1.80;;;;;;;16.65;50.23;94776.44;2957176;40;20823;-70
2021/05/29 07:03:04;;;;;;;2.58;1.58;;;;;;;16.58;50.41;94768.47;2957589;40;20084;-69
2021/05/29 07:05:09;;;;;;;2.63;1.70;;;;;;;16.71;49.99;94764.25;2959288;40;20063;-71
2021/05/29 07:07:11;;;;;;;2.22;1.77;;;;;;;16.70;49.90;94775.88;2957677;40;20077;-71
2021/05/29 07:09:17;;;;;;;3.58;1.90;;;;;;;16.49;50.02;94774.91;2956090;40;20153;-71
2021/05/29 07:11:19;;;;;;;2.63;1.73;;;;;;;16.66;50.05;94769.31;2956671;40;20484;-72
2021/05/29 07:13:21;;;;;;;2.90;1.70;;;;;;;16.89;49.58;94763.78;2957662;40;20055;-70
2021/05/29 07:15:27;;;;;;;5.50;3.20;;;;;;;16.97;49.65;94766.25;2956787;40;20053;-72
2021/05/29 07:17:32;;;;;;;5.72;1.88;;;;;;;16.37;50.53;94776.47;2957142;40;20138;-73
2021/05/29 07:19:34;;;;;;;2.90;1.50;;;;;;;16.25;51.09;94764.78;2958234;40;20388;-72
2021/05/29 07:21:38;;;;;;;6.82;3.13;;;;;;;16.54;50.91;94769.03;2951913;40;20056;-72
2021/05/29 07:23:40;;;;;;;;;;;;;;;16.76;49.70;94765.31;2950247;40;20073;-71
2021/05/29 07:25:42;;;;;;;4.15;1.70;;;;;;;16.87;49.39;94769.28;2957973;40;19940;-71
2021/05/29 07:27:43;;;;;;;3.63;1.48;;;;;;;16.81;49.24;94756.00;2958278;40;20049;-73
2021/05/29 07:29:45;;;;;;;5.63;2.20;;;;;;;16.83;50.14;94762.75;2958894;40;20153;-69
2021/05/29 07:31:47;;;;;;;10.60;2.88;;;;;;;16.66;50.58;94770.13;2956975;40;20100;-72
2021/05/29 07:33:52;;;;;;;4.97;2.45;;;;;;;16.64;49.61;94751.00;2957679;40;20060;-71
2021/05/29 07:35:54;;;;;;;3.40;1.65;;;;;;;16.90;49.25;94755.63;2957701;40;20045;-71
2021/05/29 07:37:56;;;;;;;4.72;2.38;;;;;;;16.65;49.42;94757.94;2958531;40;20056;-71
2021/05/29 07:39:57;;;;;;;4.35;1.90;;;;;;;16.99;49.12;94754.47;2957679;40;20769;-73
2021/05/29 07:41:59;;;;;;;2.40;1.50;;;;;;;17.30;48.54;94750.50;2954775;40;20049;-70
2021/05/29 07:44:02;;;;;;;1.80;1.27;;;;;;;17.35;47.72;94747.25;2958529;40;20114;-73
2021/05/29 07:46:04;;;;;;;2.80;1.30;;;;;;;17.37;48.10;94747.88;2957709;40;20052;-72
2021/05/29 07:48:08;;;;;;;3.05;1.42;;;;;;;17.50;48.22;94749.75;2958602;40;20391;-73
2021/05/29 07:50:11;;;;;;;4.95;1.50;;;;;;;17.46;48.03;94744.03;2959100;40;20064;-72
2021/05/29 07:52:13;;;;;;;2.47;1.10;;;;;;;17.61;46.77;94739.34;2956606;40;20064;-73
2021/05/29 07:54:15;;;;;;;3.97;1.17;;;;;;;17.52;47.44;94735.28;2941299;40;20148;-72
2021/05/29 07:56:18;;;;;;;3.33;1.27;;;;;;;17.61;46.63;94749.94;2956366;40;20430;-73
2021/05/29 07:58:20;;;;;;;2.20;1.20;;;;;;;17.69;46.22;94730.41;2958921;40;20089;-73
2021/05/29 08:00:26;;;;;;;2.70;1.30;;;;;;;17.79;46.33;94736.13;2958892;40;20060;-71
2021/05/29 08:02:29;;;;;;;5.40;2.80;;;;;;;17.84;46.24;94740.84;2958380;40;20157;-74
2021/05/29 08:04:33;;;;;;;4.20;1.63;;;;;;;17.89;46.19;94734.94;2952211;40;20068;-71
2021/05/29 08:06:36;;;;;;;4.97;2.10;;;;;;;17.25;46.78;94746.81;2958548;40;20321;-72
2021/05/29 08:08:38;;;;;;;2.72;1.70;;;;;;;17.32;47.42;94732.59;2960408;40;20045;-80
2021/05/29 08:10:40;;;;;;;4.82;2.65;;;;;;;17.63;47.26;94725.91;2962771;40;20061;-82
2021/05/29 08:12:42;;;;;;;5.10;1.75;;;;;;;17.78;47.10;94734.50;2961440;40;20062;-71
2021/05/29 08:14:44;;;;;;;3.53;1.35;;;;;;;17.79;46.59;94728.19;2952337;40;20081;-71
2021/05/29 08:16:46;;;;;;;6.32;1.75;;;;;;;17.39;47.79;94722.81;2957659;40;20426;-72
2021/05/29 08:18:48;;;;;;;3.00;1.60;;;;;;;17.24;48.33;94742.53;2958885;40;20161;-74
2021/05/29 08:20:52;;;;;;;3.05;1.50;;;;;;;17.10;48.56;94729.28;2957653;40;20119;-72
2021/05/29 08:22:53;;;;;;;4.28;2.38;;;;;;;17.29;49.27;94721.56;2947490;40;20089;-72
2021/05/29 08:24:55;;;;;;;2.92;1.50;;;;;;;17.71;47.34;94733.69;2961504;40;20049;-72
2021/05/29 08:26:57;;;;;;;2.85;2.35;;;;;;;17.89;47.02;94724.34;2957534;40;20341;-74
2021/05/29 08:29:00;;;;;;;2.60;1.30;;;;;;;18.06;46.35;94716.81;2956280;40;20412;-72
2021/05/29 08:31:02;;;;;;;3.05;1.85;;;;;;;17.60;47.31;94731.63;2960496;40;20123;-83
2021/05/29 08:33:06;;;;;;;2.47;1.30;;;;;;;17.51;47.82;94732.81;2957667;40;20088;-82
2021/05/29 08:35:08;;;;;;;2.40;1.23;;;;;;;17.73;47.51;94729.00;2957658;40;20550;-86
2021/05/29 08:37:10;;;;;;;2.17;1.30;;;;;;;17.99;46.11;94714.97;2959899;40;20377;-84
2021/05/29 08:39:12;;;;;;;2.78;1.30;;;;;;;18.23;46.36;94727.81;2959376;40;20053;-82
2021/05/29 08:41:14;;;;;;;2.22;1.20;;;;;;;18.30;45.94;94718.00;2960642;40;20409;-83
2021/05/29 08:43:16;;;;;;;3.25;1.60;;;;;;;18.42;45.92;94721.66;2956392;40;20061;-81
2021/05/29 08:45:18;;;;;;;4.68;1.60;;;;;;;18.67;45.76;94721.81;2958234;40;20485;-83
2021/05/29 08:47:20;;;;;;;2.92;1.40;;;;;;;18.83;45.22;94726.69;2959807;40;20451;-83
2021/05/29 08:49:21;;;;;;;1.58;1.10;;;;;;;18.70;44.50;94715.28;2959738;40;20178;-84
2021/05/29 08:51:23;;;;;;;2.97;1.48;;;;;;;18.87;44.58;94720.97;2960277;40;20147;-84
2021/05/29 08:53:25;;;;;;;2.00;1.20;;;;;;;18.85;44.86;94720.34;2955853;40;20076;-84
2021/05/29 08:55:27;;;;;;;1.83;1.02;;;;;;;18.90;44.15;94716.03;2957432;40;20393;-83
2021/05/29 08:57:28;;;;;;;2.00;0.90;;;;;;;18.92;44.03;94715.81;2957823;40;20048;-85
2021/05/29 08:59:30;;;;;;;2.47;1.10;;;;;;;19.19;43.14;94705.91;2957030;40;20154;-84
2021/05/29 09:01:32;;;;;;;1.50;0.85;;;;;;;19.09;43.58;94711.66;2959619;40;20102;-82
2021/05/29 09:03:50;;;;;;;3.85;1.08;;;;;;;19.35;42.48;94707.25;2962539;40;20100;-81
2021/05/29 09:05:53;;;;;;;2.42;1.20;;;;;;;19.39;42.17;94700.47;2962977;40;20029;-83
2021/05/29 09:08:06;;;;;;;2.50;1.20;;;;;;;19.35;42.41;94694.78;2955643;40;20450;-84
2021/05/29 09:10:19;;;;;;;2.20;1.35;;;;;;;19.78;41.85;94696.75;2955455;40;20190;-84
2021/05/29 09:12:20;;;;;;;3.25;1.40;;;;;;;19.46;41.96;94687.97;2959313;40;20064;-83
2021/05/29 09:14:26;;;;;;;4.25;1.80;;;;;;;19.55;41.47;94693.84;2958982;40;20059;-82
2021/05/29 09:16:27;;;;;;;1.70;1.08;;;;;;;19.74;42.21;94700.88;2959949;40;20078;-82
2021/05/29 09:18:48;;;;;;;3.08;1.60;;;;;;;19.56;41.64;94698.13;2960354;40;20049;-82
2021/05/29 09:20:50;;;;;;;4.40;1.83;;;;;;;19.26;41.45;94689.94;2958846;40;20064;-83
2021/05/29 09:23:00;;;;;;;5.75;1.35;;;;;;;19.40;40.90;94689.66;2961579;40;20101;-83
2021/05/29 09:25:09;;;;;;;6.93;1.42;;;;;;;19.55;41.56;94676.06;2950424;40;20123;-84
2021/05/29 09:27:11;;;;;;;4.28;1.23;;;;;;;19.50;41.60;94681.19;2944941;40;20174;-83
2021/05/29 09:29:23;;;;;;;1.65;1.10;;;;;;;19.78;41.08;94682.66;2957902;40;20126;-80
2021/05/29 09:31:25;;;;;;;11.25;1.45;;;;;;;19.62;40.65;94682.16;2961068;40;20090;-83
2021/05/29 09:33:35;;;;;;;1.77;0.90;;;;;;;19.82;40.35;94676.69;2959816;40;20041;-88
2021/05/29 09:35:36;;;;;;;2.58;1.10;;;;;;;19.66;39.98;94669.25;2955377;40;20056;-83
2021/05/29 09:37:38;;;;;;;3.08;1.10;;;;;;;19.88;39.84;94667.06;2960000;40;20061;-84
2021/05/29 09:39:42;;;;;;;2.03;1.00;;;;;;;20.02;39.25;94668.53;2961111;40;20102;-84
2021/05/29 09:41:44;;;;;;;1.20;0.98;;;;;;;20.24;39.20;94663.66;2955294;40;20053;-76
2021/05/29 09:44:04;;;;;;;2.22;1.10;;;;;;;20.24;39.61;94668.97;2959794;40;20126;-85
2021/05/29 09:46:05;;;;;;;2.30;1.25;;;;;;;20.08;39.40;94668.72;2954145;40;20061;-83
2021/05/29 09:48:12;;;;;;;1.30;0.95;;;;;;;20.19;38.94;94671.47;2960508;40;20067;-84